sensor_id;sensor_type;location;lat;lon;timestamp;pressure;altitude;pressure_sealevel;temperature;humidity
57948;BME280;43754;56.992;24.292;2023-03-26T00:02:23;99726.28;;;7.85;100.00
57948;BME280;43754;56.992;24.292;2023-03-26T00:04:56;99724.00;;;7.82;100.00
57948;BME280;43754;56.992;24.292;2023-03-26T00:07:28;99728.31;;;7.83;100.00
57948;BME280;43754;56.992;24.292;2023-03-26T00:10:00;99725.00;;;7.81;100.00
57948;BME280;43754;56.992;24.292;2023-03-26T00:12:32;99722.97;;;7.83;100.00
57948;BME280;43754;56.992;24.292;2023-03-26T00:15:05;99721.78;;;7.85;100.00
57948;BME280;43754;56.992;24.292;2023-03-26T00:17:38;99726.09;;;7.86;100.00
57948;BME280;43754;56.992;24.292;2023-03-26T00:20:12;99729.78;;;7.85;100.00
57948;BME280;43754;56.992;24.292;2023-03-26T00:22:44;99729.53;;;7.80;100.00
57948;BME280;43754;56.992;24.292;2023-03-26T00:25:17;99727.66;;;7.81;100.00
57948;BME280;43754;56.992;24.292;2023-03-26T00:27:49;99722.97;;;7.83;100.00
57948;BME280;43754;56.992;24.292;2023-03-26T00:30:21;99728.16;;;7.84;100.00
57948;BME280;43754;56.992;24.292;2023-03-26T00:32:53;99735.66;;;7.81;100.00
57948;BME280;43754;56.992;24.292;2023-03-26T00:35:26;99736.44;;;7.75;100.00
57948;BME280;43754;56.992;24.292;2023-03-26T00:38:00;99728.59;;;7.73;100.00
57948;BME280;43754;56.992;24.292;2023-03-26T00:40:32;99738.44;;;7.73;100.00
57948;BME280;43754;56.992;24.292;2023-03-26T00:43:07;99728.16;;;7.70;100.00
57948;BME280;43754;56.992;24.292;2023-03-26T00:45:50;99728.97;;;7.70;100.00
57948;BME280;43754;56.992;24.292;2023-03-26T00:48:24;99719.16;;;7.71;100.00
57948;BME280;43754;56.992;24.292;2023-03-26T00:51:19;99728.81;;;7.72;100.00
57948;BME280;43754;56.992;24.292;2023-03-26T00:53:51;99719.59;;;7.74;100.00
57948;BME280;43754;56.992;24.292;2023-03-26T00:56:24;99727.03;;;7.79;100.00
57948;BME280;43754;56.992;24.292;2023-03-26T00:58:56;99725.81;;;7.81;100.00
57948;BME280;43754;56.992;24.292;2023-03-26T01:01:28;99731.16;;;7.81;100.00
57948;BME280;43754;56.992;24.292;2023-03-26T01:04:26;99723.47;;;7.72;100.00
57948;BME280;43754;56.992;24.292;2023-03-26T01:07:09;99733.47;;;7.70;100.00
57948;BME280;43754;56.992;24.292;2023-03-26T01:09:44;99728.59;;;7.73;100.00
57948;BME280;43754;56.992;24.292;2023-03-26T01:12:22;99734.75;;;7.74;100.00
57948;BME280;43754;56.992;24.292;2023-03-26T01:14:57;99732.38;;;7.64;100.00
57948;BME280;43754;56.992;24.292;2023-03-26T01:17:31;99733.03;;;7.66;100.00
57948;BME280;43754;56.992;24.292;2023-03-26T01:20:11;99729.91;;;7.63;100.00
57948;BME280;43754;56.992;24.292;2023-03-26T01:22:49;99727.25;;;7.63;100.00
57948;BME280;43754;56.992;24.292;2023-03-26T01:25:28;99729.72;;;7.64;100.00
57948;BME280;43754;56.992;24.292;2023-03-26T01:28:05;99729.34;;;7.67;100.00
57948;BME280;43754;56.992;24.292;2023-03-26T01:30:42;99718.25;;;7.64;100.00
57948;BME280;43754;56.992;24.292;2023-03-26T01:33:24;99718.88;;;7.66;100.00
57948;BME280;43754;56.992;24.292;2023-03-26T01:36:03;99721.38;;;7.67;100.00
57948;BME280;43754;56.992;24.292;2023-03-26T01:38:42;99726.03;;;7.65;100.00
57948;BME280;43754;56.992;24.292;2023-03-26T01:41:24;99720.25;;;7.62;100.00
57948;BME280;43754;56.992;24.292;2023-03-26T01:44:03;99720.25;;;7.62;100.00
57948;BME280;43754;56.992;24.292;2023-03-26T01:46:37;99720.19;;;7.55;100.00
57948;BME280;43754;56.992;24.292;2023-03-26T01:49:10;99720.19;;;7.55;100.00
57948;BME280;43754;56.992;24.292;2023-03-26T01:51:44;99716.31;;;7.58;100.00
57948;BME280;43754;56.992;24.292;2023-03-26T01:54:19;99714.84;;;7.55;100.00
57948;BME280;43754;56.992;24.292;2023-03-26T01:57:02;99713.19;;;7.54;100.00
57948;BME280;43754;56.992;24.292;2023-03-26T02:00:04;99717.97;;;7.44;100.00
57948;BME280;43754;56.992;24.292;2023-03-26T02:03:00;99711.25;;;7.48;100.00
57948;BME280;43754;56.992;24.292;2023-03-26T02:05:36;99711.91;;;7.50;100.00
57948;BME280;43754;56.992;24.292;2023-03-26T02:08:16;99708.97;;;7.45;100.00
57948;BME280;43754;56.992;24.292;2023-03-26T02:10:56;99709.78;;;7.46;100.00
57948;BME280;43754;56.992;24.292;2023-03-26T02:13:30;99702.41;;;7.48;100.00
57948;BME280;43754;56.992;24.292;2023-03-26T02:16:05;99708.41;;;7.50;100.00
57948;BME280;43754;56.992;24.292;2023-03-26T02:18:37;99707.56;;;7.49;100.00
57948;BME280;43754;56.992;24.292;2023-03-26T02:21:14;99710.06;;;7.51;100.00
57948;BME280;43754;56.992;24.292;2023-03-26T02:23:52;99708.41;;;7.50;100.00
57948;BME280;43754;56.992;24.292;2023-03-26T02:26:37;99705.28;;;7.46;100.00
57948;BME280;43754;56.992;24.292;2023-03-26T02:29:16;99700.31;;;7.43;100.00
57948;BME280;43754;56.992;24.292;2023-03-26T02:31:52;99705.84;;;7.42;100.00
57948;BME280;43754;56.992;24.292;2023-03-26T02:34:24;99696.00;;;7.42;100.00
57948;BME280;43754;56.992;24.292;2023-03-26T02:36:58;99704.34;;;7.39;100.00
57948;BME280;43754;56.992;24.292;2023-03-26T02:39:31;99694.63;;;7.31;100.00
57948;BME280;43754;56.992;24.292;2023-03-26T02:42:08;99698.13;;;7.32;100.00
57948;BME280;43754;56.992;24.292;2023-03-26T02:44:49;99702.63;;;7.31;100.00
57948;BME280;43754;56.992;24.292;2023-03-26T02:47:24;99703.38;;;7.25;100.00
57948;BME280;43754;56.992;24.292;2023-03-26T02:49:56;99698.38;;;7.22;100.00
57948;BME280;43754;56.992;24.292;2023-03-26T02:52:45;99699.41;;;7.21;100.00
57948;BME280;43754;56.992;24.292;2023-03-26T02:55:20;99699.41;;;7.21;100.00
57948;BME280;43754;56.992;24.292;2023-03-26T02:57:55;99697.09;;;7.18;100.00
57948;BME280;43754;56.992;24.292;2023-03-26T03:00:35;99697.91;;;7.19;100.00
57948;BME280;43754;56.992;24.292;2023-03-26T03:03:26;99695.00;;;7.14;100.00
57948;BME280;43754;56.992;24.292;2023-03-26T03:06:31;99701.25;;;7.21;100.00
57948;BME280;43754;56.992;24.292;2023-03-26T03:09:03;99697.59;;;7.22;100.00
57948;BME280;43754;56.992;24.292;2023-03-26T03:11:39;99697.38;;;7.23;100.00
57948;BME280;43754;56.992;24.292;2023-03-26T03:14:12;99692.03;;;7.23;100.00
57948;BME280;43754;56.992;24.292;2023-03-26T03:16:45;99696.75;;;7.21;100.00
57948;BME280;43754;56.992;24.292;2023-03-26T03:19:17;99700.78;;;7.17;100.00
57948;BME280;43754;56.992;24.292;2023-03-26T03:21:51;99696.28;;;7.18;100.00
57948;BME280;43754;56.992;24.292;2023-03-26T03:24:23;99698.75;;;7.19;100.00
57948;BME280;43754;56.992;24.292;2023-03-26T03:26:55;99705.47;;;7.15;100.00
57948;BME280;43754;56.992;24.292;2023-03-26T03:29:39;99699.97;;;7.17;100.00
57948;BME280;43754;56.992;24.292;2023-03-26T03:32:48;99696.47;;;7.16;100.00
57948;BME280;43754;56.992;24.292;2023-03-26T03:35:25;99690.59;;;7.21;100.00
57948;BME280;43754;56.992;24.292;2023-03-26T03:38:04;99689.75;;;7.20;100.00
57948;BME280;43754;56.992;24.292;2023-03-26T03:40:47;99684.34;;;7.14;100.00
57948;BME280;43754;56.992;24.292;2023-03-26T03:43:20;99689.75;;;7.20;100.00
57948;BME280;43754;56.992;24.292;2023-03-26T03:46:15;99697.59;;;7.22;100.00
57948;BME280;43754;56.992;24.292;2023-03-26T03:48:51;99683.59;;;7.20;100.00
57948;BME280;43754;56.992;24.292;2023-03-26T03:51:31;99687.63;;;7.16;100.00
57948;BME280;43754;56.992;24.292;2023-03-26T03:54:05;99689.56;;;7.07;100.00
57948;BME280;43754;56.992;24.292;2023-03-26T03:56:51;99684.69;;;7.11;100.00
57948;BME280;43754;56.992;24.292;2023-03-26T03:59:41;99683.59;;;7.05;100.00
57948;BME280;43754;56.992;24.292;2023-03-26T04:02:20;99682.22;;;7.09;100.00
57948;BME280;43754;56.992;24.292;2023-03-26T04:05:04;99687.91;;;7.06;100.00
57948;BME280;43754;56.992;24.292;2023-03-26T04:07:37;99678.91;;;7.07;100.00
57948;BME280;43754;56.992;24.292;2023-03-26T04:10:13;99679.06;;;7.06;100.00
57948;BME280;43754;56.992;24.292;2023-03-26T04:13:18;99677.78;;;7.02;100.00
57948;BME280;43754;56.992;24.292;2023-03-26T04:16:10;99689.47;;;7.01;100.00
57948;BME280;43754;56.992;24.292;2023-03-26T04:18:42;99688.72;;;7.07;100.00
57948;BME280;43754;56.992;24.292;2023-03-26T04:21:19;99683.03;;;7.10;100.00
57948;BME280;43754;56.992;24.292;2023-03-26T04:23:52;99685.34;;;7.13;100.00
57948;BME280;43754;56.992;24.292;2023-03-26T04:26:48;99685.16;;;7.14;100.00
57948;BME280;43754;56.992;24.292;2023-03-26T04:29:25;99677.16;;;7.14;100.00
57948;BME280;43754;56.992;24.292;2023-03-26T04:31:58;99673.84;;;7.12;100.00
57948;BME280;43754;56.992;24.292;2023-03-26T04:34:37;99668.25;;;7.07;100.00
57948;BME280;43754;56.992;24.292;2023-03-26T04:37:23;99671.09;;;7.06;100.00
57948;BME280;43754;56.992;24.292;2023-03-26T04:40:12;99676.25;;;7.07;100.00
57948;BME280;43754;56.992;24.292;2023-03-26T04:43:03;99669.53;;;7.11;100.00
57948;BME280;43754;56.992;24.292;2023-03-26T04:45:54;99668.25;;;7.07;100.00
57948;BME280;43754;56.992;24.292;2023-03-26T04:48:29;99672.56;;;7.08;100.00
57948;BME280;43754;56.992;24.292;2023-03-26T04:51:02;99667.88;;;7.10;100.00
57948;BME280;43754;56.992;24.292;2023-03-26T04:53:35;99668.34;;;7.14;100.00
57948;BME280;43754;56.992;24.292;2023-03-26T04:56:36;99662.94;;;7.22;100.00
57948;BME280;43754;56.992;24.292;2023-03-26T04:59:24;99662.56;;;7.25;100.00
57948;BME280;43754;56.992;24.292;2023-03-26T05:02:03;99661.16;;;7.29;100.00
57948;BME280;43754;56.992;24.292;2023-03-26T05:04:45;99667.50;;;7.28;100.00
57948;BME280;43754;56.992;24.292;2023-03-26T05:07:20;99667.78;;;7.33;100.00
57948;BME280;43754;56.992;24.292;2023-03-26T05:09:57;99659.63;;;7.34;100.00
57948;BME280;43754;56.992;24.292;2023-03-26T05:12:41;99661.69;;;7.39;100.00
57948;BME280;43754;56.992;24.292;2023-03-26T05:15:19;99658.56;;;7.35;100.00
57948;BME280;43754;56.992;24.292;2023-03-26T05:18:07;99644.31;;;7.43;100.00
57948;BME280;43754;56.992;24.292;2023-03-26T05:20:50;99645.41;;;7.49;100.00
57948;BME280;43754;56.992;24.292;2023-03-26T05:23:22;99654.31;;;7.56;100.00
57948;BME280;43754;56.992;24.292;2023-03-26T05:26:06;99651.09;;;7.60;100.00
57948;BME280;43754;56.992;24.292;2023-03-26T05:28:39;99653.19;;;7.65;100.00
57948;BME280;43754;56.992;24.292;2023-03-26T05:31:25;99660.84;;;7.68;100.00
57948;BME280;43754;56.992;24.292;2023-03-26T05:34:02;99666.19;;;7.68;100.00
57948;BME280;43754;56.992;24.292;2023-03-26T05:36:35;99658.41;;;7.73;100.00
57948;BME280;43754;56.992;24.292;2023-03-26T05:39:24;99657.84;;;7.77;100.00
57948;BME280;43754;56.992;24.292;2023-03-26T05:42:18;99663.31;;;7.69;100.00
57948;BME280;43754;56.992;24.292;2023-03-26T05:45:25;99657.97;;;7.69;100.00
57948;BME280;43754;56.992;24.292;2023-03-26T05:47:58;99661.66;;;7.68;100.00
57948;BME280;43754;56.992;24.292;2023-03-26T05:50:30;99661.56;;;7.76;100.00
57948;BME280;43754;56.992;24.292;2023-03-26T05:53:04;99656.28;;;7.83;100.00
57948;BME280;43754;56.992;24.292;2023-03-26T05:56:02;99666.13;;;7.82;100.00
57948;BME280;43754;56.992;24.292;2023-03-26T05:58:56;99661.25;;;7.86;100.00
57948;BME280;43754;56.992;24.292;2023-03-26T06:01:46;99661.44;;;7.84;100.00
57948;BME280;43754;56.992;24.292;2023-03-26T06:04:19;99657.19;;;7.90;100.00
57948;BME280;43754;56.992;24.292;2023-03-26T06:07:08;99663.31;;;8.05;100.00
57948;BME280;43754;56.992;24.292;2023-03-26T06:09:41;99659.75;;;8.19;100.00
57948;BME280;43754;56.992;24.292;2023-03-26T06:12:14;99659.16;;;8.24;100.00
57948;BME280;43754;56.992;24.292;2023-03-26T06:14:48;99659.16;;;8.24;100.00
57948;BME280;43754;56.992;24.292;2023-03-26T06:17:26;99662.28;;;8.27;100.00
57948;BME280;43754;56.992;24.292;2023-03-26T06:20:08;99665.88;;;8.35;100.00
57948;BME280;43754;56.992;24.292;2023-03-26T06:22:43;99660.03;;;8.46;100.00
57948;BME280;43754;56.992;24.292;2023-03-26T06:25:28;99662.50;;;8.47;100.00
57948;BME280;43754;56.992;24.292;2023-03-26T06:28:38;99654.25;;;8.42;100.00
57948;BME280;43754;56.992;24.292;2023-03-26T06:31:37;99662.28;;;8.49;100.00
57948;BME280;43754;56.992;24.292;2023-03-26T06:34:28;99656.09;;;8.42;100.00
57948;BME280;43754;56.992;24.292;2023-03-26T06:37:01;99654.28;;;8.27;100.00
57948;BME280;43754;56.992;24.292;2023-03-26T06:39:34;99655.38;;;8.33;100.00
57948;BME280;43754;56.992;24.292;2023-03-26T06:42:16;99661.41;;;8.42;100.00
57948;BME280;43754;56.992;24.292;2023-03-26T06:45:08;99661.03;;;8.45;100.00
57948;BME280;43754;56.992;24.292;2023-03-26T06:48:01;99659.50;;;8.36;100.00
57948;BME280;43754;56.992;24.292;2023-03-26T06:50:51;99655.91;;;8.43;100.00
57948;BME280;43754;56.992;24.292;2023-03-26T06:53:55;99662.94;;;8.51;100.00
57948;BME280;43754;56.992;24.292;2023-03-26T06:56:49;99666.44;;;8.51;100.00
57948;BME280;43754;56.992;24.292;2023-03-26T06:59:41;99662.13;;;8.50;100.00
57948;BME280;43754;56.992;24.292;2023-03-26T07:02:32;99661.31;;;8.56;100.00
57948;BME280;43754;56.992;24.292;2023-03-26T07:05:24;99665.72;;;8.64;100.00
57948;BME280;43754;56.992;24.292;2023-03-26T07:08:34;99661.00;;;8.66;100.00
57948;BME280;43754;56.992;24.292;2023-03-26T07:11:25;99668.31;;;8.57;100.00
57948;BME280;43754;56.992;24.292;2023-03-26T07:14:09;99665.03;;;8.55;100.00
57948;BME280;43754;56.992;24.292;2023-03-26T07:16:51;99670.25;;;8.42;100.00
57948;BME280;43754;56.992;24.292;2023-03-26T07:19:42;99666.69;;;8.35;100.00
57948;BME280;43754;56.992;24.292;2023-03-26T07:22:19;99657.97;;;8.26;100.00
57948;BME280;43754;56.992;24.292;2023-03-26T07:25:16;99668.19;;;8.23;100.00
57948;BME280;43754;56.992;24.292;2023-03-26T07:28:12;99667.56;;;8.21;100.00
57948;BME280;43754;56.992;24.292;2023-03-26T07:31:28;99664.00;;;8.35;100.00
57948;BME280;43754;56.992;24.292;2023-03-26T07:34:34;99667.16;;;8.39;100.00
57948;BME280;43754;56.992;24.292;2023-03-26T07:37:31;99666.59;;;8.43;100.00
57948;BME280;43754;56.992;24.292;2023-03-26T07:40:39;99674.19;;;8.46;100.00
57948;BME280;43754;56.992;24.292;2023-03-26T07:44:03;99675.09;;;8.32;100.00
57948;BME280;43754;56.992;24.292;2023-03-26T07:46:58;99670.63;;;8.39;100.00
57948;BME280;43754;56.992;24.292;2023-03-26T07:49:52;99670.19;;;8.36;100.00
57948;BME280;43754;56.992;24.292;2023-03-26T07:52:46;99662.72;;;8.52;100.00
57948;BME280;43754;56.992;24.292;2023-03-26T07:55:42;99656.44;;;8.60;100.00
57948;BME280;43754;56.992;24.292;2023-03-26T07:59:13;99673.28;;;8.60;100.00
57948;BME280;43754;56.992;24.292;2023-03-26T08:02:30;99669.25;;;8.71;100.00
57948;BME280;43754;56.992;24.292;2023-03-26T08:05:23;99665.66;;;8.85;100.00
57948;BME280;43754;56.992;24.292;2023-03-26T08:08:32;99663.72;;;9.00;100.00
57948;BME280;43754;56.992;24.292;2023-03-26T08:11:33;99670.69;;;9.29;100.00
57948;BME280;43754;56.992;24.292;2023-03-26T08:14:21;99669.09;;;9.48;100.00
57948;BME280;43754;56.992;24.292;2023-03-26T08:17:01;99669.22;;;9.67;100.00
57948;BME280;43754;56.992;24.292;2023-03-26T08:19:44;99667.84;;;9.91;100.00
57948;BME280;43754;56.992;24.292;2023-03-26T08:22:22;99666.28;;;10.17;100.00
57948;BME280;43754;56.992;24.292;2023-03-26T08:25:10;99657.25;;;10.18;100.00
57948;BME280;43754;56.992;24.292;2023-03-26T08:27:53;99657.00;;;10.19;100.00
57948;BME280;43754;56.992;24.292;2023-03-26T08:30:31;99652.91;;;10.17;100.00
57948;BME280;43754;56.992;24.292;2023-03-26T08:33:11;99660.09;;;10.16;100.00
57948;BME280;43754;56.992;24.292;2023-03-26T08:35:44;99657.66;;;10.28;100.00
57948;BME280;43754;56.992;24.292;2023-03-26T08:38:17;99658.28;;;10.30;100.00
57948;BME280;43754;56.992;24.292;2023-03-26T08:41:20;99651.28;;;10.35;100.00
57948;BME280;43754;56.992;24.292;2023-03-26T08:47:47;99661.38;;;10.33;100.00
57948;BME280;43754;56.992;24.292;2023-03-26T08:51:10;99660.53;;;10.26;100.00
57948;BME280;43754;56.992;24.292;2023-03-26T08:57:23;99664.41;;;9.56;100.00
57948;BME280;43754;56.992;24.292;2023-03-26T09:00:16;99654.69;;;9.42;100.00
57948;BME280;43754;56.992;24.292;2023-03-26T09:10:14;99661.25;;;9.87;100.00
57948;BME280;43754;56.992;24.292;2023-03-26T09:13:18;99653.81;;;9.83;100.00
57948;BME280;43754;56.992;24.292;2023-03-26T09:22:29;99650.66;;;10.66;100.00
57948;BME280;43754;56.992;24.292;2023-03-26T09:25:34;99645.06;;;10.94;100.00
57948;BME280;43754;56.992;24.292;2023-03-26T09:31:38;99638.56;;;11.92;100.00
57948;BME280;43754;56.992;24.292;2023-03-26T09:34:29;99631.19;;;12.12;100.00
57948;BME280;43754;56.992;24.292;2023-03-26T09:37:13;99633.22;;;12.48;100.00
57948;BME280;43754;56.992;24.292;2023-03-26T09:39:58;99632.94;;;12.31;100.00
57948;BME280;43754;56.992;24.292;2023-03-26T09:42:42;99627.91;;;12.10;100.00
57948;BME280;43754;56.992;24.292;2023-03-26T09:45:37;99627.75;;;12.05;100.00
57948;BME280;43754;56.992;24.292;2023-03-26T09:51:37;99631.13;;;11.87;100.00
57948;BME280;43754;56.992;24.292;2023-03-26T09:57:17;99628.16;;;11.64;100.00
57948;BME280;43754;56.992;24.292;2023-03-26T10:00:02;99633.16;;;11.47;100.00
57948;BME280;43754;56.992;24.292;2023-03-26T10:03:02;99633.22;;;11.28;100.00
57948;BME280;43754;56.992;24.292;2023-03-26T10:05:46;99635.13;;;11.14;100.00
57948;BME280;43754;56.992;24.292;2023-03-26T10:08:32;99628.72;;;11.22;100.00
57948;BME280;43754;56.992;24.292;2023-03-26T10:11:13;99623.72;;;11.38;100.00
57948;BME280;43754;56.992;24.292;2023-03-26T10:13:59;99629.28;;;11.37;100.00
57948;BME280;43754;56.992;24.292;2023-03-26T10:16:50;99619.72;;;11.54;100.00
57948;BME280;43754;56.992;24.292;2023-03-26T10:19:43;99621.13;;;11.57;100.00
57948;BME280;43754;56.992;24.292;2023-03-26T10:22:26;99628.69;;;11.35;100.00
57948;BME280;43754;56.992;24.292;2023-03-26T10:25:16;99625.31;;;11.46;100.00
57948;BME280;43754;56.992;24.292;2023-03-26T10:28:02;99622.44;;;11.41;100.00
57948;BME280;43754;56.992;24.292;2023-03-26T10:30:52;99624.13;;;11.35;100.00
57948;BME280;43754;56.992;24.292;2023-03-26T10:33:34;99625.16;;;11.28;100.00
57948;BME280;43754;56.992;24.292;2023-03-26T10:36:26;99631.66;;;11.00;100.00
57948;BME280;43754;56.992;24.292;2023-03-26T10:39:27;99632.06;;;10.91;100.00
57948;BME280;43754;56.992;24.292;2023-03-26T10:42:19;99621.75;;;10.94;100.00
57948;BME280;43754;56.992;24.292;2023-03-26T10:45:06;99623.56;;;11.20;100.00
57948;BME280;43754;56.992;24.292;2023-03-26T10:48:07;99620.25;;;11.76;100.00
57948;BME280;43754;56.992;24.292;2023-03-26T10:50:51;99621.22;;;12.44;100.00
57948;BME280;43754;56.992;24.292;2023-03-26T10:53:31;99617.63;;;12.81;98.21
57948;BME280;43754;56.992;24.292;2023-03-26T10:56:06;99614.19;;;12.93;97.60
57948;BME280;43754;56.992;24.292;2023-03-26T10:58:41;99615.69;;;12.88;95.18
57948;BME280;43754;56.992;24.292;2023-03-26T11:01:27;99616.03;;;12.74;96.27
57948;BME280;43754;56.992;24.292;2023-03-26T11:04:12;99635.13;;;12.41;100.00
57948;BME280;43754;56.992;24.292;2023-03-26T11:06:56;99644.38;;;11.89;100.00
57948;BME280;43754;56.992;24.292;2023-03-26T11:09:38;99651.00;;;11.22;100.00
57948;BME280;43754;56.992;24.292;2023-03-26T11:12:21;99649.41;;;11.01;100.00
57948;BME280;43754;56.992;24.292;2023-03-26T11:15:09;99643.25;;;10.22;100.00
57948;BME280;43754;56.992;24.292;2023-03-26T11:17:50;99644.25;;;10.21;100.00
57948;BME280;43754;56.992;24.292;2023-03-26T11:20:32;99638.91;;;10.28;100.00
57948;BME280;43754;56.992;24.292;2023-03-26T11:23:25;99637.25;;;10.40;100.00
57948;BME280;43754;56.992;24.292;2023-03-26T11:26:07;99618.94;;;10.50;100.00
57948;BME280;43754;56.992;24.292;2023-03-26T11:29:03;99623.06;;;10.59;100.00
57948;BME280;43754;56.992;24.292;2023-03-26T11:32:02;99614.78;;;10.60;100.00
57948;BME280;43754;56.992;24.292;2023-03-26T11:34:39;99623.22;;;10.84;100.00
57948;BME280;43754;56.992;24.292;2023-03-26T11:37:16;99614.47;;;11.15;100.00
57948;BME280;43754;56.992;24.292;2023-03-26T11:39:53;99609.25;;;11.39;100.00
57948;BME280;43754;56.992;24.292;2023-03-26T11:42:29;99610.25;;;11.51;100.00
57948;BME280;43754;56.992;24.292;2023-03-26T11:45:04;99611.22;;;11.57;100.00
57948;BME280;43754;56.992;24.292;2023-03-26T11:47:42;99612.63;;;11.66;100.00
57948;BME280;43754;56.992;24.292;2023-03-26T11:50:19;99603.75;;;11.66;100.00
57948;BME280;43754;56.992;24.292;2023-03-26T11:52:56;99599.38;;;11.84;100.00
57948;BME280;43754;56.992;24.292;2023-03-26T11:55:30;99604.34;;;12.12;100.00
57948;BME280;43754;56.992;24.292;2023-03-26T11:58:11;99594.03;;;12.09;100.00
57948;BME280;43754;56.992;24.292;2023-03-26T12:00:53;99600.22;;;12.10;100.00
57948;BME280;43754;56.992;24.292;2023-03-26T12:03:25;99598.00;;;12.31;100.00
57948;BME280;43754;56.992;24.292;2023-03-26T12:06:00;99595.72;;;12.53;100.00
57948;BME280;43754;56.992;24.292;2023-03-26T12:08:38;99586.19;;;12.57;100.00
57948;BME280;43754;56.992;24.292;2023-03-26T12:11:17;99592.09;;;12.48;99.78
57948;BME280;43754;56.992;24.292;2023-03-26T12:13:56;99596.56;;;12.29;99.84
57948;BME280;43754;56.992;24.292;2023-03-26T12:16:29;99590.69;;;12.14;100.00
57948;BME280;43754;56.992;24.292;2023-03-26T12:19:03;99585.69;;;11.92;100.00
57948;BME280;43754;56.992;24.292;2023-03-26T12:21:43;99588.88;;;11.70;100.00
57948;BME280;43754;56.992;24.292;2023-03-26T12:24:27;99590.63;;;11.51;100.00
57948;BME280;43754;56.992;24.292;2023-03-26T12:27:01;99586.50;;;11.48;100.00
57948;BME280;43754;56.992;24.292;2023-03-26T12:29:58;99588.78;;;11.51;100.00
57948;BME280;43754;56.992;24.292;2023-03-26T12:32:38;99572.38;;;11.66;100.00
57948;BME280;43754;56.992;24.292;2023-03-26T12:35:19;99578.38;;;11.99;100.00
57948;BME280;43754;56.992;24.292;2023-03-26T12:37:54;99573.66;;;11.95;100.00
57948;BME280;43754;56.992;24.292;2023-03-26T12:40:29;99567.19;;;12.03;100.00
57948;BME280;43754;56.992;24.292;2023-03-26T12:43:02;99562.19;;;12.13;100.00
57948;BME280;43754;56.992;24.292;2023-03-26T12:45:56;99558.28;;;12.09;100.00
57948;BME280;43754;56.992;24.292;2023-03-26T12:48:53;99565.91;;;12.12;100.00
57948;BME280;43754;56.992;24.292;2023-03-26T12:51:35;99564.78;;;11.94;100.00
57948;BME280;43754;56.992;24.292;2023-03-26T12:54:25;99561.06;;;11.95;100.00
57948;BME280;43754;56.992;24.292;2023-03-26T12:57:13;99558.00;;;11.92;100.00
57948;BME280;43754;56.992;24.292;2023-03-26T13:00:02;99556.03;;;12.06;100.00
57948;BME280;43754;56.992;24.292;2023-03-26T13:03:00;99558.22;;;12.15;100.00
57948;BME280;43754;56.992;24.292;2023-03-26T13:05:46;99552.19;;;12.20;100.00
57948;BME280;43754;56.992;24.292;2023-03-26T13:08:51;99557.19;;;12.16;100.00
57948;BME280;43754;56.992;24.292;2023-03-26T13:11:34;99551.72;;;12.29;100.00
57948;BME280;43754;56.992;24.292;2023-03-26T13:14:33;99551.91;;;12.28;99.00
57948;BME280;43754;56.992;24.292;2023-03-26T13:17:15;99555.78;;;12.14;100.00
57948;BME280;43754;56.992;24.292;2023-03-26T13:20:00;99554.88;;;11.95;100.00
57948;BME280;43754;56.992;24.292;2023-03-26T13:22:51;99548.00;;;12.06;99.06
57948;BME280;43754;56.992;24.292;2023-03-26T13:25:35;99548.56;;;12.08;100.00
57948;BME280;43754;56.992;24.292;2023-03-26T13:28:17;99549.03;;;12.05;100.00
57948;BME280;43754;56.992;24.292;2023-03-26T13:31:03;99540.53;;;12.08;100.00
57948;BME280;43754;56.992;24.292;2023-03-26T13:33:44;99541.78;;;12.05;100.00
57948;BME280;43754;56.992;24.292;2023-03-26T13:36:29;99547.06;;;11.93;100.00
57948;BME280;43754;56.992;24.292;2023-03-26T13:39:12;99549.63;;;11.75;100.00
57948;BME280;43754;56.992;24.292;2023-03-26T13:41:55;99555.06;;;11.62;100.00
57948;BME280;43754;56.992;24.292;2023-03-26T13:44:36;99554.13;;;11.43;100.00
57948;BME280;43754;56.992;24.292;2023-03-26T13:47:15;99555.63;;;11.33;100.00
57948;BME280;43754;56.992;24.292;2023-03-26T13:49:50;99558.94;;;11.28;100.00
57948;BME280;43754;56.992;24.292;2023-03-26T13:52:30;99562.69;;;11.21;100.00
57948;BME280;43754;56.992;24.292;2023-03-26T13:55:17;99558.63;;;11.05;100.00
57948;BME280;43754;56.992;24.292;2023-03-26T13:57:55;99553.03;;;11.06;100.00
57948;BME280;43754;56.992;24.292;2023-03-26T14:00:46;99552.78;;;11.21;100.00
57948;BME280;43754;56.992;24.292;2023-03-26T14:03:24;99556.00;;;11.36;100.00
57948;BME280;43754;56.992;24.292;2023-03-26T14:06:03;99557.84;;;11.42;100.00
57948;BME280;43754;56.992;24.292;2023-03-26T14:08:41;99554.03;;;11.57;100.00
57948;BME280;43754;56.992;24.292;2023-03-26T14:11:19;99554.63;;;11.72;100.00
57948;BME280;43754;56.992;24.292;2023-03-26T14:13:59;99551.63;;;11.86;100.00
57948;BME280;43754;56.992;24.292;2023-03-26T14:16:37;99559.09;;;11.84;100.00
57948;BME280;43754;56.992;24.292;2023-03-26T14:19:26;99552.16;;;11.64;100.00
57948;BME280;43754;56.992;24.292;2023-03-26T14:22:12;99562.56;;;11.47;100.00
57948;BME280;43754;56.992;24.292;2023-03-26T14:25:00;99554.72;;;11.52;100.00
57948;BME280;43754;56.992;24.292;2023-03-26T14:27:59;99565.53;;;11.70;100.00
57948;BME280;43754;56.992;24.292;2023-03-26T14:30:53;99566.78;;;11.74;100.00
57948;BME280;43754;56.992;24.292;2023-03-26T14:33:40;99558.19;;;11.59;100.00
57948;BME280;43754;56.992;24.292;2023-03-26T14:36:27;99565.47;;;11.45;100.00
57948;BME280;43754;56.992;24.292;2023-03-26T14:39:30;99567.75;;;11.42;100.00
57948;BME280;43754;56.992;24.292;2023-03-26T14:42:17;99567.13;;;11.40;100.00